首页
METAR-TAF:

METAR-TAF

机场 :

圣约翰斯国际机场

聖約翰斯, 紐芬蘭-拉布拉多, 加拿大

纬度: 47-37N, 经度: 052-44W, 海拔: 134米

当前天气观测

该预报发布于1小时和1分钟前的10:00 UTC
风速46节,风向西转西北,有时为60节阵风
温度 0°C
湿度 64%
气压 979 hPa
能見度: 24.1公里
阴天层高于3100英尺

METAR: CYYT 151000Z 29046G60KT 15SM OVC031 M00/M06 A2892 RMK SC8 SLP799

时间: 07:31 (11:01 UTC)

预报

该预报发布于5小时和23分钟前的05:38 UTC
预报有效从15日的 06点(UTC)到 16日的 06点(UTC)
风速45节,风向西,有时为60节阵风
能見度: 10公里
多云层高于3000英尺
小阵雪
短暂存在
从 15日的 06点(UTC)到 15日的 08点(UTC)
能見度: 1.6公里
层高于1000英尺
小阵雪, 高吹雪
从 15日的 0800点(UTC)
风速45节,风向西,有时为60节阵风
能見度: 10公里
多云层高于3000英尺
短暂存在
从 15日的 08点(UTC)到 15日的 17点(UTC)
能見度: 6.4公里
阴天层高于2000英尺
小阵雪
从 15日的 1700点(UTC)
风速35节,风向西转西北,有时为50节阵风
能見度: 10公里
多云层高于3000英尺
从 15日的 2300点(UTC)
风速30节,风向西转西北,有时为40节阵风
能見度: 10公里
多云层高于2000英尺
成为
从 16日的 01点(UTC)到 16日的 03点(UTC)
风速25节,风向西转西北,有时为35节阵风

TAF: CYYT 150538Z 1506/1606 28045G60KT P6SM -SHSN BKN030 TEMPO 1506/1508 1SM -SHSN BLSN VV010 FM150800 28045G60KT P6SM BKN030 TEMPO 1508/1517 4SM -SHSN OVC020 FM151700 30035G50KT P6SM BKN030 FM152300 30030G40KT P6SM BKN020 BECMG 1601/1603 30025G35KT RMK NXT FCST BY 151200Z

超过4000个机场的气象观测和天气预报(METAR&TAF报告)。

可查询的气象台以黄色和红色小点在地图上表示。

将鼠标移到小点上方,可查看气象台名称。

然后点击查看天气观测和预报。

如需切换地图:点击带黑十字的绿色按钮放大地图;点击带横线的绿色按钮缩小地图;或者点击绿色箭头查看邻近地区的地图。


METAR-TAF: